createdAt,value
2019-02-21T00:00:45.360Z,5.49
2019-02-21T00:01:45.405Z,5.56
2019-02-21T00:02:45.441Z,5.51
2019-02-21T00:03:45.533Z,5.57
2019-02-21T00:04:45.508Z,5.63
2019-02-21T00:05:45.546Z,5.56
2019-02-21T00:06:45.583Z,5.57
2019-02-21T00:07:45.622Z,5.58
2019-02-21T00:08:45.659Z,5.56
2019-02-21T00:09:45.695Z,5.60
2019-02-21T00:10:45.735Z,5.56
2019-02-21T00:11:45.769Z,5.58
2019-02-21T00:12:45.812Z,5.48
2019-02-21T00:13:45.845Z,5.60
2019-02-21T00:14:45.884Z,5.53
2019-02-21T00:15:45.926Z,5.49
2019-02-21T00:16:45.964Z,5.56
2019-02-21T00:17:45.992Z,5.48
2019-02-21T00:18:46.031Z,5.49
2019-02-21T00:19:46.069Z,5.42
2019-02-21T00:20:46.105Z,5.39
2019-02-21T00:21:46.143Z,5.36
2019-02-21T00:22:46.180Z,5.38
2019-02-21T00:23:46.219Z,5.40
2019-02-21T00:24:46.253Z,5.45
2019-02-21T00:25:46.291Z,5.33
2019-02-21T00:26:46.335Z,5.45
2019-02-21T00:27:46.367Z,5.39
2019-02-21T00:28:46.405Z,5.38
2019-02-21T00:29:46.444Z,5.33
2019-02-21T00:30:46.478Z,5.38
2019-02-21T00:31:46.517Z,5.36
2019-02-21T00:32:46.554Z,5.49
2019-02-21T00:33:46.601Z,5.43
2019-02-21T00:34:46.627Z,5.43
2019-02-21T00:35:46.664Z,5.46
2019-02-21T00:36:46.701Z,5.56
2019-02-21T00:37:46.744Z,5.51
2019-02-21T00:38:46.776Z,5.46
2019-02-21T00:39:46.817Z,5.60
2019-02-21T00:40:46.851Z,5.49
2019-02-21T00:41:46.888Z,5.57
2019-02-21T00:42:46.927Z,5.49
2019-02-21T00:43:46.971Z,5.53
2019-02-21T00:44:47.007Z,5.48
2019-02-21T00:45:47.038Z,5.49
2019-02-21T00:46:47.074Z,5.45
2019-02-21T00:47:47.111Z,5.48
2019-02-21T00:48:47.149Z,5.43
2019-02-21T00:49:47.186Z,5.49
2019-02-21T00:50:47.232Z,5.31
2019-02-21T00:51:47.259Z,5.25
2019-02-21T00:52:47.297Z,5.28
2019-02-21T00:53:47.337Z,5.21
2019-02-21T00:54:47.381Z,5.30
2019-02-21T00:55:47.407Z,5.24
2019-02-21T00:56:47.632Z,5.20
2019-02-21T00:57:47.483Z,5.24
2019-02-21T00:58:47.528Z,5.24
2019-02-21T00:59:47.560Z,5.33
2019-02-21T01:00:47.595Z,5.22
2019-02-21T01:01:47.631Z,5.22
2019-02-21T01:02:47.672Z,5.18
2019-02-21T01:03:47.706Z,5.20
2019-02-21T01:04:47.746Z,5.17
2019-02-21T01:05:47.780Z,5.25
2019-02-21T01:06:47.818Z,5.18
2019-02-21T01:07:47.864Z,5.12
2019-02-21T01:08:47.894Z,5.07
2019-02-21T01:09:47.931Z,5.00
2019-02-21T01:10:47.972Z,4.97
2019-02-21T01:11:48.008Z,4.78
2019-02-21T01:12:48.040Z,4.75
2019-02-21T01:13:48.077Z,4.69
2019-02-21T01:14:48.122Z,4.73
2019-02-21T01:15:48.154Z,4.67
2019-02-21T01:16:48.187Z,4.60
2019-02-21T01:17:48.225Z,4.63
2019-02-21T01:18:48.267Z,4.58
2019-02-21T01:19:48.314Z,4.59
2019-02-21T01:20:48.336Z,4.55
2019-02-21T01:21:48.371Z,4.55
2019-02-21T01:22:48.408Z,4.52
2019-02-21T01:23:48.446Z,4.54
2019-02-21T01:24:48.488Z,4.52
2019-02-21T01:25:48.520Z,4.48
2019-02-21T01:26:48.556Z,4.54
2019-02-21T01:27:48.591Z,4.55
2019-02-21T01:28:48.629Z,4.51
2019-02-21T01:29:48.666Z,4.51
2019-02-21T01:30:56.740Z,4.55
2019-02-21T01:31:48.740Z,4.52
2019-02-21T01:32:48.777Z,4.54
2019-02-21T01:33:48.813Z,4.48
2019-02-21T01:34:48.851Z,4.48
2019-02-21T01:35:48.887Z,4.55
2019-02-21T01:36:48.924Z,4.63
2019-02-21T01:37:48.963Z,4.58
2019-02-21T01:38:49.019Z,4.52
2019-02-21T01:39:49.034Z,4.58
2019-02-21T01:40:49.070Z,4.66
2019-02-21T01:41:49.112Z,4.59
2019-02-21T01:42:49.148Z,4.66
2019-02-21T01:43:49.186Z,4.70
2019-02-21T01:44:49.219Z,4.77
2019-02-21T01:45:49.260Z,4.59
2019-02-21T01:46:49.293Z,4.67
2019-02-21T01:47:49.329Z,4.69
2019-02-21T01:48:49.430Z,4.55
2019-02-21T01:49:49.402Z,4.60
2019-02-21T01:50:49.438Z,4.52
2019-02-21T01:51:49.484Z,4.52
2019-02-21T01:52:49.514Z,4.50
2019-02-21T01:53:49.550Z,4.52
2019-02-21T01:54:49.585Z,4.44
2019-02-21T01:55:49.630Z,4.37
2019-02-21T01:56:49.660Z,4.44
2019-02-21T01:57:49.703Z,4.45
2019-02-21T01:58:49.733Z,4.37
2019-02-21T01:59:49.771Z,4.41
2019-02-21T02:00:49.805Z,4.37
2019-02-21T02:01:49.844Z,4.29
2019-02-21T02:02:49.880Z,4.36
2019-02-21T02:03:49.924Z,4.32
2019-02-21T02:04:49.962Z,4.30
2019-02-21T02:05:49.992Z,4.30
2019-02-21T02:06:50.028Z,4.26
2019-02-21T02:07:50.066Z,4.32
2019-02-21T02:08:50.101Z,4.27
2019-02-21T02:09:50.138Z,4.33
2019-02-21T02:10:50.180Z,4.32
2019-02-21T02:11:50.212Z,4.29
2019-02-21T02:12:50.249Z,4.24
2019-02-21T02:13:50.285Z,4.34
2019-02-21T02:14:50.325Z,4.32
2019-02-21T02:15:50.357Z,4.34
2019-02-21T02:16:50.397Z,4.24
2019-02-21T02:17:50.442Z,4.34
2019-02-21T02:18:50.470Z,4.30
2019-02-21T02:19:50.518Z,4.33
2019-02-21T02:20:50.546Z,4.24
2019-02-21T02:21:50.581Z,4.20
2019-02-21T02:22:50.617Z,4.23
2019-02-21T02:23:50.654Z,4.09
2019-02-21T02:24:50.691Z,4.18
2019-02-21T02:25:50.733Z,4.02
2019-02-21T02:26:50.763Z,4.02
2019-02-21T02:27:50.799Z,4.06
2019-02-21T02:28:50.839Z,4.11
2019-02-21T02:29:50.887Z,4.04
2019-02-21T02:30:50.912Z,4.05
2019-02-21T02:31:50.948Z,4.06
2019-02-21T02:32:50.983Z,3.97
2019-02-21T02:33:51.028Z,3.97
2019-02-21T02:34:51.066Z,4.02
2019-02-21T02:35:51.144Z,4.08
2019-02-21T02:36:51.131Z,4.00
2019-02-21T02:37:51.168Z,4.06
2019-02-21T02:38:51.205Z,3.96
2019-02-21T02:39:51.241Z,4.00
2019-02-21T02:40:51.288Z,3.97
2019-02-21T02:41:51.314Z,4.02
2019-02-21T02:42:51.353Z,4.05
2019-02-21T02:43:51.387Z,3.98
2019-02-21T02:44:51.422Z,4.08
2019-02-21T02:45:51.560Z,4.05
2019-02-21T02:46:51.510Z,4.00
2019-02-21T02:47:51.536Z,4.04
2019-02-21T02:48:51.580Z,4.02
2019-02-21T02:49:51.823Z,4.04
2019-02-21T02:50:51.645Z,4.11
2019-02-21T02:51:51.681Z,4.18
2019-02-21T02:52:51.717Z,4.20
2019-02-21T02:53:51.760Z,4.29
2019-02-21T02:54:51.796Z,4.34
2019-02-21T02:55:51.825Z,4.40
2019-02-21T02:56:51.865Z,4.37
2019-02-21T02:57:51.902Z,4.37
2019-02-21T02:58:51.938Z,4.32
2019-02-21T02:59:51.973Z,4.33
2019-02-21T03:00:52.010Z,4.22
2019-02-21T03:01:52.046Z,4.37
2019-02-21T03:02:52.085Z,4.33
2019-02-21T03:03:52.118Z,4.37
2019-02-21T03:04:52.205Z,4.40
2019-02-21T03:05:52.191Z,4.36
2019-02-21T03:06:52.246Z,4.37
2019-02-21T03:07:52.265Z,4.32
2019-02-21T03:08:52.305Z,4.27
2019-02-21T03:09:52.340Z,4.26
2019-02-21T03:10:52.377Z,4.24
2019-02-21T03:11:52.425Z,4.29
2019-02-21T03:12:52.453Z,4.26
2019-02-21T03:13:52.485Z,4.18
2019-02-21T03:14:52.522Z,4.20
2019-02-21T03:15:52.567Z,4.24
2019-02-21T03:16:52.604Z,4.22
2019-02-21T03:17:52.632Z,4.09
2019-02-21T03:18:52.686Z,4.15
2019-02-21T03:19:52.703Z,4.09
2019-02-21T03:20:52.769Z,4.24
2019-02-21T03:21:52.780Z,4.15
2019-02-21T03:22:52.829Z,4.15
2019-02-21T03:23:52.856Z,4.32
2019-02-21T03:24:52.887Z,4.27
2019-02-21T03:25:52.934Z,4.29
2019-02-21T03:26:52.964Z,4.26
2019-02-21T03:27:53.008Z,4.24
2019-02-21T03:28:53.034Z,4.32
2019-02-21T03:29:53.110Z,4.30
2019-02-21T03:30:53.110Z,4.27
2019-02-21T03:31:55.652Z,4.24
2019-02-21T03:32:53.188Z,4.34
2019-02-21T03:33:53.217Z,4.23
2019-02-21T03:34:53.261Z,4.15
2019-02-21T03:35:53.294Z,4.26
2019-02-21T03:36:53.328Z,4.20
2019-02-21T03:37:53.364Z,4.29
2019-02-21T03:38:53.410Z,4.33
2019-02-21T03:39:53.437Z,4.26
2019-02-21T03:40:53.474Z,4.27
2019-02-21T03:41:53.514Z,4.27
2019-02-21T03:42:53.549Z,4.26
2019-02-21T03:43:53.586Z,4.30
2019-02-21T03:44:53.629Z,4.26
2019-02-21T03:45:53.664Z,4.26
2019-02-21T03:46:53.694Z,4.33
2019-02-21T03:47:53.731Z,4.26
2019-02-21T03:48:53.766Z,4.18
2019-02-21T03:49:53.803Z,4.30
2019-02-21T03:50:53.845Z,4.30
2019-02-21T03:51:53.880Z,4.27
2019-02-21T03:52:53.914Z,4.33
2019-02-21T03:53:53.954Z,4.37
2019-02-21T03:54:54.000Z,4.45
2019-02-21T03:55:54.026Z,4.37
2019-02-21T03:56:54.062Z,4.41
2019-02-21T03:57:54.096Z,4.42
2019-02-21T03:58:54.135Z,4.50
2019-02-21T03:59:54.171Z,4.52
2019-02-21T04:00:54.206Z,4.58
2019-02-21T04:02:04.897Z,4.62
2019-02-21T04:02:54.279Z,4.62
2019-02-21T04:03:54.318Z,4.63
2019-02-21T04:04:54.356Z,4.70
2019-02-21T04:05:54.389Z,4.80
2019-02-21T04:06:54.425Z,4.73
2019-02-21T04:07:54.466Z,4.78
2019-02-21T04:08:54.498Z,4.86
2019-02-21T04:09:54.536Z,4.91
2019-02-21T04:10:54.572Z,4.89
2019-02-21T04:11:54.611Z,4.96
2019-02-21T04:12:54.646Z,4.91
2019-02-21T04:13:54.682Z,4.94
2019-02-21T04:14:54.724Z,4.92
2019-02-21T04:15:54.756Z,4.97
2019-02-21T04:16:54.794Z,4.91
2019-02-21T04:17:54.898Z,4.84
2019-02-21T04:18:54.870Z,4.89
2019-02-21T04:19:54.903Z,4.85
2019-02-21T04:20:54.941Z,4.89
2019-02-21T04:21:54.979Z,4.78
2019-02-21T04:22:55.016Z,4.75
2019-02-21T04:23:55.052Z,4.82
2019-02-21T04:24:55.089Z,4.82
2019-02-21T04:25:55.132Z,4.82
2019-02-21T04:26:55.163Z,4.78
2019-02-21T04:27:55.197Z,4.70
2019-02-21T04:28:55.238Z,4.60
2019-02-21T04:29:55.275Z,4.52
2019-02-21T04:30:55.312Z,4.55
2019-02-21T04:31:55.347Z,4.54
2019-02-21T04:32:55.384Z,4.54
2019-02-21T04:33:55.423Z,4.51
2019-02-21T04:34:55.465Z,4.55
2019-02-21T04:35:55.504Z,4.50
2019-02-21T04:36:55.531Z,4.58
2019-02-21T04:37:55.618Z,4.55
2019-02-21T04:38:55.606Z,4.54
2019-02-21T04:39:55.643Z,4.50
2019-02-21T04:40:55.771Z,4.51
2019-02-21T04:41:55.716Z,4.50
2019-02-21T04:42:55.755Z,4.50
2019-02-21T04:43:55.793Z,4.48
2019-02-21T04:44:55.826Z,4.42
2019-02-21T04:45:55.862Z,4.45
2019-02-21T04:46:55.969Z,4.47
2019-02-21T04:47:55.935Z,4.47
2019-02-21T04:48:55.997Z,4.36
2019-02-21T04:49:56.012Z,4.44
2019-02-21T04:50:56.049Z,4.41
2019-02-21T04:51:56.083Z,4.41
2019-02-21T04:52:56.120Z,4.41
2019-02-21T04:53:56.159Z,4.37
2019-02-21T04:54:56.203Z,4.36
2019-02-21T04:55:56.231Z,4.36
2019-02-21T04:56:56.273Z,4.27
2019-02-21T04:57:56.305Z,4.20
2019-02-21T04:58:56.342Z,4.22
2019-02-21T04:59:56.382Z,4.08
2019-02-21T05:00:56.415Z,4.02
2019-02-21T05:01:56.453Z,4.05
2019-02-21T05:02:56.488Z,4.02
2019-02-21T05:03:56.542Z,4.00
2019-02-21T05:04:56.562Z,3.94
2019-02-21T05:05:56.598Z,3.91
2019-02-21T05:06:56.645Z,3.86
2019-02-21T05:07:56.673Z,3.86
2019-02-21T05:08:56.708Z,3.87
2019-02-21T05:09:58.329Z,3.80
2019-02-21T05:10:56.781Z,3.83
2019-02-21T05:11:56.817Z,3.84
2019-02-21T05:12:56.855Z,3.79
2019-02-21T05:13:56.891Z,3.84
2019-02-21T05:14:56.927Z,3.65
2019-02-21T05:15:56.961Z,3.65
2019-02-21T05:16:57.010Z,3.60
2019-02-21T05:17:57.036Z,3.68
2019-02-21T05:18:57.073Z,3.70
2019-02-21T05:19:57.113Z,3.61
2019-02-21T05:20:57.145Z,3.57
2019-02-21T05:21:57.183Z,3.54
2019-02-21T05:22:57.218Z,3.45
2019-02-21T05:23:57.266Z,3.48
2019-02-21T05:24:57.291Z,3.47
2019-02-21T05:25:57.328Z,3.35
2019-02-21T05:26:57.436Z,3.35
2019-02-21T05:27:57.400Z,3.43
2019-02-21T05:28:57.442Z,3.39
2019-02-21T05:29:57.482Z,3.39
2019-02-21T05:30:57.511Z,3.32
2019-02-21T05:31:57.549Z,3.33
2019-02-21T05:32:57.590Z,3.29
2019-02-21T05:33:57.621Z,3.35
2019-02-21T05:34:57.707Z,3.33
2019-02-21T05:35:57.690Z,3.33
2019-02-21T05:36:57.728Z,3.31
2019-02-21T05:37:57.769Z,3.26
2019-02-21T05:38:57.802Z,3.17
2019-02-21T05:39:57.838Z,3.20
2019-02-21T05:40:57.874Z,3.20
2019-02-21T05:41:57.910Z,3.20
2019-02-21T05:42:57.947Z,3.21
2019-02-21T05:43:57.981Z,3.15
2019-02-21T05:44:59.562Z,3.15
2019-02-21T05:45:58.055Z,3.10
2019-02-21T05:46:58.099Z,3.11
2019-02-21T05:48:01.002Z,3.14
2019-02-21T05:48:58.163Z,3.03
2019-02-21T05:49:58.201Z,3.17
2019-02-21T05:50:58.240Z,3.14
2019-02-21T05:51:58.275Z,3.17
2019-02-21T05:52:58.308Z,3.17
2019-02-21T05:53:58.342Z,3.15
2019-02-21T05:54:58.399Z,3.17
2019-02-21T05:55:58.423Z,3.11
2019-02-21T05:56:58.451Z,3.03
2019-02-21T05:57:58.491Z,3.00
2019-02-21T05:58:58.536Z,3.03
2019-02-21T05:59:58.559Z,3.00
2019-02-21T06:00:58.596Z,3.03
2019-02-21T06:01:58.640Z,3.03
2019-02-21T06:02:58.670Z,3.20
2019-02-21T06:03:58.706Z,3.15
2019-02-21T06:04:58.740Z,3.13
2019-02-21T06:05:58.923Z,3.08
2019-02-21T06:06:58.813Z,3.10
2019-02-21T06:07:58.850Z,2.97
2019-02-21T06:08:58.890Z,3.03
2019-02-21T06:09:58.923Z,3.08
2019-02-21T06:10:58.961Z,3.13
2019-02-21T06:11:58.995Z,3.20
2019-02-21T06:13:00.105Z,3.18
2019-02-21T06:13:59.069Z,3.20
2019-02-21T06:14:59.111Z,3.15
2019-02-21T06:15:59.139Z,3.31
2019-02-21T06:16:59.187Z,3.31
2019-02-21T06:17:59.264Z,3.35
2019-02-21T06:18:59.245Z,3.39
2019-02-21T06:19:59.281Z,3.36
2019-02-21T06:20:59.317Z,3.31
2019-02-21T06:22:09.984Z,3.33
2019-02-21T06:22:59.390Z,3.33
2019-02-21T06:23:59.541Z,3.33
2019-02-21T06:24:59.461Z,3.31
2019-02-21T06:25:59.545Z,3.28
2019-02-21T06:27:00.896Z,3.26
2019-02-21T06:27:59.569Z,3.20
2019-02-21T06:28:59.606Z,3.33
2019-02-21T06:29:59.642Z,3.40
2019-02-21T06:30:59.677Z,3.40
2019-02-21T06:31:59.714Z,3.39
2019-02-21T06:33:04.959Z,3.55
2019-02-21T06:33:59.786Z,3.48
2019-02-21T06:35:02.439Z,3.57
2019-02-21T06:35:59.860Z,3.55
2019-02-21T06:36:59.896Z,3.60
2019-02-21T06:37:59.941Z,3.66
2019-02-21T06:38:59.970Z,3.66
2019-02-21T06:40:00.003Z,3.73
2019-02-21T06:41:00.042Z,3.87
2019-02-21T06:42:00.481Z,3.83
2019-02-21T06:43:00.126Z,3.87
2019-02-21T06:44:00.149Z,3.94
2019-02-21T06:45:00.275Z,4.00
2019-02-21T06:46:00.222Z,3.98
2019-02-21T06:47:00.259Z,4.04
2019-02-21T06:48:00.310Z,4.04
2019-02-21T06:49:00.330Z,4.14
2019-02-21T06:50:00.368Z,4.12
2019-02-21T06:51:00.410Z,4.27
2019-02-21T06:52:00.438Z,4.26
2019-02-21T06:53:00.477Z,4.34
2019-02-21T06:54:00.513Z,4.48
2019-02-21T06:55:02.257Z,4.52
2019-02-21T06:56:00.593Z,4.50
2019-02-21T06:57:00.622Z,4.54
2019-02-21T06:58:00.658Z,4.65
2019-02-21T06:59:00.695Z,4.80
2019-02-21T07:00:00.731Z,4.78
2019-02-21T07:01:00.768Z,4.89
2019-02-21T07:02:00.806Z,4.82
2019-02-21T07:03:00.848Z,4.97
2019-02-21T07:04:01.959Z,5.02
2019-02-21T07:05:00.918Z,5.09
2019-02-21T07:06:00.955Z,5.17
2019-02-21T07:07:01.018Z,5.22
2019-02-21T07:08:01.027Z,5.15
2019-02-21T07:09:01.069Z,5.28
2019-02-21T07:10:01.100Z,5.31
2019-02-21T07:11:06.134Z,5.31
2019-02-21T07:12:01.173Z,5.40
2019-02-21T07:13:01.216Z,5.38
2019-02-21T07:14:01.263Z,5.38
2019-02-21T07:15:01.365Z,5.38
2019-02-21T07:16:01.333Z,5.43
2019-02-21T07:17:01.362Z,5.53
2019-02-21T07:18:01.402Z,5.49
2019-02-21T07:19:01.440Z,5.46
2019-02-21T07:20:01.474Z,5.45
2019-02-21T07:21:01.511Z,5.56
2019-02-21T07:22:01.545Z,5.46
2019-02-21T07:23:01.583Z,5.57
2019-02-21T07:24:01.622Z,5.68
2019-02-21T07:25:01.681Z,5.67
2019-02-21T07:26:01.695Z,5.81
2019-02-21T07:27:01.738Z,5.81
2019-02-21T07:28:11.334Z,5.85
2019-02-21T07:29:01.806Z,5.89
2019-02-21T07:30:01.842Z,5.83
2019-02-21T07:31:01.879Z,5.89
2019-02-21T07:32:01.917Z,5.90
2019-02-21T07:33:01.957Z,5.90
2019-02-21T07:34:02.112Z,5.97
2019-02-21T07:35:02.028Z,5.86
2019-02-21T07:36:02.066Z,5.97
2019-02-21T07:37:02.106Z,5.97
2019-02-21T07:38:02.144Z,5.96
2019-02-21T07:39:16.251Z,5.93
2019-02-21T07:40:02.219Z,5.90
2019-02-21T07:41:02.357Z,6.03
2019-02-21T07:42:02.299Z,6.01
2019-02-21T07:43:02.403Z,6.01
2019-02-21T07:44:11.661Z,5.99
2019-02-21T07:45:02.601Z,6.00
2019-02-21T07:46:02.453Z,6.12
2019-02-21T07:47:02.478Z,6.04
2019-02-21T07:48:02.515Z,6.09
2019-02-21T07:49:02.564Z,6.08
2019-02-21T07:50:02.591Z,6.11
2019-02-21T07:51:02.629Z,5.94
2019-02-21T07:52:02.665Z,6.00
2019-02-21T07:53:03.087Z,5.96
2019-02-21T07:54:02.740Z,6.00
2019-02-21T07:55:02.796Z,6.01
2019-02-21T07:56:02.815Z,5.94
2019-02-21T07:57:02.858Z,6.09
2019-02-21T07:58:04.013Z,6.00
2019-02-21T07:59:02.931Z,6.00
2019-02-21T08:00:02.966Z,6.03
2019-02-21T08:01:03.004Z,5.99
2019-02-21T08:02:03.040Z,6.03
2019-02-21T08:03:03.095Z,6.17
2019-02-21T08:04:03.114Z,6.12
2019-02-21T08:05:03.162Z,6.17
2019-02-21T08:06:03.228Z,6.09
2019-02-21T08:07:03.231Z,6.17
2019-02-21T08:08:03.266Z,6.18
2019-02-21T08:09:03.306Z,6.15
2019-02-21T08:10:03.345Z,6.21
2019-02-21T08:11:03.397Z,6.21
2019-02-21T08:12:03.417Z,6.31
2019-02-21T08:13:03.457Z,6.36
2019-02-21T08:14:03.495Z,6.33
2019-02-21T08:15:03.530Z,6.51
2019-02-21T08:16:03.582Z,6.55
2019-02-21T08:17:03.607Z,6.56
2019-02-21T08:18:03.660Z,6.59
2019-02-21T08:19:03.696Z,6.67
2019-02-21T08:20:08.498Z,6.67
2019-02-21T08:21:03.759Z,6.58
2019-02-21T08:22:03.799Z,6.61
2019-02-21T08:23:03.840Z,6.56
2019-02-21T08:24:03.870Z,6.54
2019-02-21T08:25:03.920Z,6.58
2019-02-21T08:26:03.950Z,6.64
2019-02-21T08:27:03.987Z,6.66
2019-02-21T08:28:04.025Z,6.64
2019-02-21T08:29:05.989Z,6.67
2019-02-21T08:30:04.105Z,6.70
2019-02-21T08:31:04.140Z,6.73
2019-02-21T08:32:04.174Z,6.87
2019-02-21T08:33:04.211Z,6.81
2019-02-21T08:34:04.584Z,6.89
2019-02-21T08:35:06.821Z,6.87
2019-02-21T08:36:04.324Z,6.91
2019-02-21T08:37:04.363Z,6.91
2019-02-21T08:38:04.400Z,7.05
2019-02-21T08:39:04.438Z,7.03
2019-02-21T08:40:04.478Z,7.12
2019-02-21T08:41:04.513Z,7.12
2019-02-21T08:42:04.556Z,7.12
2019-02-21T08:43:04.589Z,7.23
2019-02-21T08:44:04.628Z,7.17
2019-02-21T08:45:04.669Z,7.24
2019-02-21T08:46:04.708Z,7.16
2019-02-21T08:47:04.744Z,7.20
2019-02-21T08:48:04.870Z,7.27
2019-02-21T08:49:04.819Z,7.28
2019-02-21T08:50:04.865Z,7.34
2019-02-21T08:51:06.254Z,7.46
2019-02-21T08:52:04.932Z,7.42
2019-02-21T08:53:04.971Z,7.50
2019-02-21T08:54:05.792Z,7.48
2019-02-21T08:55:05.052Z,7.55
2019-02-21T08:56:05.085Z,7.58
2019-02-21T08:57:05.131Z,7.71
2019-02-21T08:58:07.634Z,7.64
2019-02-21T08:59:05.198Z,7.71
2019-02-21T09:00:05.237Z,7.80
2019-02-21T09:01:05.290Z,7.87
2019-02-21T09:02:05.314Z,7.80
2019-02-21T09:03:05.352Z,7.79
2019-02-21T09:04:10.500Z,7.89
2019-02-21T09:05:05.443Z,7.82
2019-02-21T09:06:05.465Z,7.83
2019-02-21T09:07:05.506Z,7.82
2019-02-21T09:08:05.550Z,7.98
2019-02-21T09:09:05.589Z,7.97
2019-02-21T09:10:05.621Z,8.02
2019-02-21T09:11:05.669Z,8.02
2019-02-21T09:12:05.947Z,8.05
2019-02-21T09:13:05.736Z,7.98
2019-02-21T09:14:05.795Z,8.11
2019-02-21T09:15:05.829Z,8.19
2019-02-21T09:16:05.850Z,8.18
2019-02-21T09:17:05.889Z,8.22
2019-02-21T09:18:05.927Z,8.29
2019-02-21T09:19:05.977Z,8.30
2019-02-21T09:20:06.009Z,8.40
2019-02-21T09:21:06.044Z,8.45
2019-02-21T09:22:06.085Z,8.44
2019-02-21T09:23:06.126Z,8.48
2019-02-21T09:24:06.162Z,8.47
2019-02-21T09:25:06.199Z,8.62
2019-02-21T09:26:06.237Z,8.68
2019-02-21T09:27:06.276Z,8.62
2019-02-21T09:28:06.314Z,8.68
2019-02-21T09:29:06.358Z,8.66
2019-02-21T09:30:06.403Z,8.63
2019-02-21T09:31:06.434Z,8.76
2019-02-21T09:32:07.009Z,8.83
2019-02-21T09:33:16.675Z,8.84
2019-02-21T09:34:06.558Z,8.91
2019-02-21T09:35:06.588Z,9.04
2019-02-21T09:36:06.625Z,9.10
2019-02-21T09:37:06.675Z,9.21
2019-02-21T09:38:06.702Z,9.28
2019-02-21T09:39:06.756Z,9.32
2019-02-21T09:40:06.798Z,9.46
2019-02-21T09:41:06.819Z,9.48
2019-02-21T09:42:06.860Z,9.61
2019-02-21T09:43:06.899Z,9.78
2019-02-21T09:44:06.940Z,9.90
2019-02-21T09:45:09.316Z,9.76
2019-02-21T09:46:07.024Z,9.83
2019-02-21T09:47:07.057Z,9.93
2019-02-21T09:48:07.094Z,9.96
2019-02-21T09:49:07.139Z,9.97
2019-02-21T09:50:07.179Z,10.09
2019-02-21T09:51:07.312Z,10.15
2019-02-21T09:52:07.256Z,10.09
2019-02-21T09:53:07.305Z,10.08
2019-02-21T09:54:07.404Z,10.23
2019-02-21T09:55:07.375Z,10.29
2019-02-21T09:56:07.414Z,10.40
2019-02-21T09:57:13.214Z,10.52
2019-02-21T09:58:07.509Z,10.53
2019-02-21T09:59:07.536Z,10.53
2019-02-21T10:00:07.572Z,10.67
2019-02-21T10:01:07.620Z,10.64
2019-02-21T10:02:07.653Z,10.67
2019-02-21T10:03:07.692Z,10.71
2019-02-21T10:04:07.732Z,10.73
2019-02-21T10:05:07.774Z,10.64
2019-02-21T10:06:08.412Z,10.64
2019-02-21T10:07:07.859Z,10.59
2019-02-21T10:08:07.901Z,10.60
2019-02-21T10:09:07.936Z,10.60
2019-02-21T10:10:08.221Z,10.60
2019-02-21T10:11:08.026Z,10.66
2019-02-21T10:12:08.058Z,10.61
2019-02-21T10:13:08.095Z,10.68
2019-02-21T10:14:08.136Z,10.73
2019-02-21T10:15:08.178Z,10.82
2019-02-21T10:16:08.219Z,10.92
2019-02-21T10:17:08.257Z,10.74
2019-02-21T10:18:08.297Z,10.84
2019-02-21T10:19:08.339Z,10.89
2019-02-21T10:20:08.388Z,10.89
2019-02-21T10:21:08.426Z,10.91
2019-02-21T10:22:08.462Z,11.00
2019-02-21T10:23:08.500Z,10.96
2019-02-21T10:24:08.549Z,10.99
2019-02-21T10:25:08.585Z,11.21
2019-02-21T10:26:08.622Z,11.15
2019-02-21T10:27:08.664Z,11.14
2019-02-21T10:28:08.705Z,11.11
2019-02-21T10:29:08.747Z,11.11
2019-02-21T10:30:08.785Z,10.99
2019-02-21T10:31:08.848Z,10.79
2019-02-21T10:32:08.872Z,10.79
2019-02-21T10:33:08.906Z,10.76
2019-02-21T10:34:08.948Z,10.70
2019-02-21T10:35:08.997Z,10.66
2019-02-21T10:36:09.029Z,10.66
2019-02-21T10:37:09.077Z,10.51
2019-02-21T10:38:09.110Z,10.41
2019-02-21T10:39:09.163Z,10.38
2019-02-21T10:40:09.191Z,10.22
2019-02-21T10:41:09.239Z,10.34
2019-02-21T10:42:09.283Z,10.20
2019-02-21T10:43:09.314Z,10.08
2019-02-21T10:44:09.363Z,10.07
2019-02-21T10:45:09.393Z,10.05
2019-02-21T10:46:09.435Z,9.94
2019-02-21T10:47:09.480Z,9.97
2019-02-21T10:48:09.513Z,9.87
2019-02-21T10:49:09.556Z,9.93
2019-02-21T10:50:09.593Z,9.96
2019-02-21T10:51:09.642Z,9.97
2019-02-21T10:52:09.682Z,10.08
2019-02-21T10:53:09.715Z,10.09
2019-02-21T10:54:09.761Z,10.14
2019-02-21T10:55:09.795Z,10.22
2019-02-21T10:56:09.842Z,10.22
2019-02-21T10:57:09.874Z,10.17
2019-02-21T10:58:09.914Z,10.17
2019-02-21T10:59:09.955Z,10.09
2019-02-21T11:00:10.023Z,10.09
2019-02-21T11:01:10.033Z,10.04
2019-02-21T11:02:10.075Z,10.08
2019-02-21T11:03:10.115Z,10.14
2019-02-21T11:04:10.153Z,10.15
2019-02-21T11:05:10.293Z,10.09
2019-02-21T11:06:10.234Z,10.23
2019-02-21T11:07:10.289Z,10.18
2019-02-21T11:08:10.313Z,10.22
2019-02-21T11:09:10.353Z,10.22
2019-02-21T11:10:10.395Z,10.23
2019-02-21T11:11:10.442Z,10.30
2019-02-21T11:12:10.473Z,10.38
2019-02-21T11:13:10.514Z,10.55
2019-02-21T11:14:10.554Z,10.63
2019-02-21T11:15:10.594Z,10.76
2019-02-21T11:16:10.633Z,10.89
2019-02-21T11:17:10.673Z,10.97
2019-02-21T11:18:10.721Z,10.97
2019-02-21T11:19:10.755Z,10.99
2019-02-21T11:20:10.794Z,11.11
2019-02-21T11:21:10.835Z,11.07
2019-02-21T11:22:10.878Z,11.25
2019-02-21T11:23:10.924Z,11.29
2019-02-21T11:24:10.971Z,11.46
2019-02-21T11:25:11.003Z,11.46
2019-02-21T11:26:11.036Z,11.58
2019-02-21T11:27:11.086Z,11.70
2019-02-21T11:28:11.117Z,11.79
2019-02-21T11:29:11.158Z,11.95
2019-02-21T11:30:11.200Z,11.91
2019-02-21T11:31:11.237Z,12.10
2019-02-21T11:32:11.277Z,12.20
2019-02-21T11:33:11.393Z,12.39
2019-02-21T11:34:11.360Z,12.56
2019-02-21T11:35:11.409Z,12.59
2019-02-21T11:36:11.440Z,12.70
2019-02-21T11:37:11.481Z,12.74
2019-02-21T11:38:11.523Z,12.87
2019-02-21T11:39:11.580Z,12.96
2019-02-21T11:40:11.607Z,13.03
2019-02-21T11:41:11.645Z,13.17
2019-02-21T11:42:11.704Z,13.29
2019-02-21T11:43:11.730Z,13.30
2019-02-21T11:44:11.769Z,13.39
2019-02-21T11:45:11.812Z,13.48
2019-02-21T11:46:11.855Z,13.63
2019-02-21T11:47:11.899Z,13.57
2019-02-21T11:48:11.935Z,13.64
2019-02-21T11:49:11.978Z,13.67
2019-02-21T11:50:12.021Z,13.82
2019-02-21T11:51:12.131Z,13.84
2019-02-21T11:52:12.102Z,13.92
2019-02-21T11:53:12.145Z,13.99
2019-02-21T11:54:14.592Z,13.92
2019-02-21T11:55:12.230Z,13.88
2019-02-21T11:56:12.273Z,13.85
2019-02-21T11:57:12.314Z,13.97
2019-02-21T11:58:12.355Z,13.95
2019-02-21T11:59:12.409Z,13.96
2019-02-21T12:00:12.439Z,13.99
2019-02-21T12:01:12.481Z,14.10
2019-02-21T12:02:12.523Z,14.09
2019-02-21T12:03:12.566Z,14.15
2019-02-21T12:04:12.608Z,14.24
2019-02-21T12:05:17.369Z,14.24
2019-02-21T12:06:12.694Z,14.43
2019-02-21T12:07:12.763Z,14.45
2019-02-21T12:08:12.781Z,14.52
2019-02-21T12:09:12.823Z,14.45
2019-02-21T12:10:12.864Z,14.58
2019-02-21T12:11:12.916Z,14.65
2019-02-21T12:12:12.951Z,14.80
2019-02-21T12:13:12.993Z,14.80
2019-02-21T12:14:13.041Z,14.94
2019-02-21T12:15:13.077Z,14.78
2019-02-21T12:16:13.124Z,14.81
2019-02-21T12:17:13.164Z,14.88
2019-02-21T12:18:13.258Z,14.92
2019-02-21T12:19:13.261Z,14.81
2019-02-21T12:20:13.293Z,14.64
2019-02-21T12:21:13.345Z,14.51
2019-02-21T12:22:13.386Z,14.24
2019-02-21T12:23:13.425Z,14.15
2019-02-21T12:24:13.476Z,14.15
2019-02-21T12:25:13.510Z,13.91
2019-02-21T12:26:13.560Z,13.84
2019-02-21T12:27:13.596Z,13.79
2019-02-21T12:28:13.637Z,13.95
2019-02-21T12:29:13.682Z,14.03
2019-02-21T12:30:13.724Z,14.18
2019-02-21T12:31:13.767Z,14.36
2019-02-21T12:32:13.810Z,14.42
2019-02-21T12:33:13.861Z,14.52
2019-02-21T12:34:13.896Z,14.57
2019-02-21T12:35:13.940Z,14.65
2019-02-21T12:36:14.018Z,14.78
2019-02-21T12:37:14.032Z,14.86
2019-02-21T12:38:14.069Z,14.92
2019-02-21T12:39:14.119Z,14.68
2019-02-21T12:40:14.153Z,14.65
2019-02-21T12:41:14.197Z,14.78
2019-02-21T12:42:14.247Z,14.88
2019-02-21T12:43:14.291Z,14.94
2019-02-21T12:44:14.326Z,15.02
2019-02-21T12:45:14.381Z,15.02
2019-02-21T12:46:14.414Z,14.98
2019-02-21T12:47:14.466Z,15.02
2019-02-21T12:48:14.516Z,15.01
2019-02-21T12:49:14.542Z,15.07
2019-02-21T12:50:14.587Z,15.06
2019-02-21T12:51:14.631Z,14.98
2019-02-21T12:52:14.674Z,14.95
2019-02-21T12:53:14.717Z,15.13
2019-02-21T12:54:14.768Z,15.13
2019-02-21T12:55:26.501Z,15.14
2019-02-21T12:56:14.855Z,15.14
2019-02-21T12:57:14.888Z,15.20
2019-02-21T12:58:14.930Z,15.35
2019-02-21T12:59:14.984Z,15.39
2019-02-21T13:00:15.019Z,15.53
2019-02-21T13:01:15.068Z,15.60
2019-02-21T13:02:15.106Z,15.57
2019-02-21T13:03:15.148Z,15.56
2019-02-21T13:04:15.191Z,15.54
2019-02-21T13:05:15.303Z,15.32
2019-02-21T13:06:15.288Z,15.29
2019-02-21T13:07:15.324Z,15.29
2019-02-21T13:08:15.369Z,15.29
2019-02-21T13:09:15.412Z,15.35
2019-02-21T13:10:15.469Z,15.29
2019-02-21T13:11:15.497Z,15.32
2019-02-21T13:12:15.539Z,15.36